sensor_id;sensor_type;location;lat;lon;timestamp;pressure;altitude;pressure_sealevel;temperature;humidity
46199;BME280;31928;52.104;10.030;2023-03-02T00:01:46;101513.44;;;2.82;45.45
46199;BME280;31928;52.104;10.030;2023-03-02T00:04:18;101517.75;;;2.83;45.95
46199;BME280;31928;52.104;10.030;2023-03-02T00:06:47;101523.47;;;2.79;46.08
46199;BME280;31928;52.104;10.030;2023-03-02T00:09:16;101515.66;;;2.77;45.64
46199;BME280;31928;52.104;10.030;2023-03-02T00:11:42;101516.78;;;2.75;46.03
46199;BME280;31928;52.104;10.030;2023-03-02T00:14:10;101518.56;;;2.74;45.64
46199;BME280;31928;52.104;10.030;2023-03-02T00:16:37;101525.81;;;2.72;45.45
46199;BME280;31928;52.104;10.030;2023-03-02T00:19:05;101525.97;;;2.71;45.69
46199;BME280;31928;52.104;10.030;2023-03-02T00:21:32;101519.94;;;2.69;45.38
46199;BME280;31928;52.104;10.030;2023-03-02T00:23:58;101522.75;;;2.67;45.50
46199;BME280;31928;52.104;10.030;2023-03-02T00:26:25;101525.66;;;2.64;45.54
46199;BME280;31928;52.104;10.030;2023-03-02T00:28:51;101532.06;;;2.62;45.74
46199;BME280;31928;52.104;10.030;2023-03-02T00:31:18;101525.38;;;2.58;45.61
46199;BME280;31928;52.104;10.030;2023-03-02T00:33:44;101530.75;;;2.56;45.60
46199;BME280;31928;52.104;10.030;2023-03-02T00:36:16;101534.13;;;2.58;45.63
46199;BME280;31928;52.104;10.030;2023-03-02T00:38:43;101525.16;;;2.50;45.80
46199;BME280;31928;52.104;10.030;2023-03-02T00:41:11;101534.09;;;2.49;46.21
46199;BME280;31928;52.104;10.030;2023-03-02T00:43:39;101532.69;;;2.45;46.30
46199;BME280;31928;52.104;10.030;2023-03-02T00:46:17;101527.25;;;2.46;45.81
46199;BME280;31928;52.104;10.030;2023-03-02T00:48:45;101533.22;;;2.39;46.40
46199;BME280;31928;52.104;10.030;2023-03-02T00:51:12;101538.78;;;2.36;46.47
46199;BME280;31928;52.104;10.030;2023-03-02T00:53:40;101542.38;;;2.35;46.91
46199;BME280;31928;52.104;10.030;2023-03-02T00:56:07;101540.84;;;2.33;46.96
46199;BME280;31928;52.104;10.030;2023-03-02T00:58:34;101534.00;;;2.30;46.72
46199;BME280;31928;52.104;10.030;2023-03-02T01:01:09;101533.00;;;2.51;43.83
46199;BME280;31928;52.104;10.030;2023-03-02T01:03:36;101526.06;;;2.30;46.28
46199;BME280;31928;52.104;10.030;2023-03-02T01:06:03;101522.66;;;2.48;43.68
46199;BME280;31928;52.104;10.030;2023-03-02T01:08:30;101522.72;;;2.28;46.27
46199;BME280;31928;52.104;10.030;2023-03-02T01:10:57;101519.50;;;2.25;46.32
46199;BME280;31928;52.104;10.030;2023-03-02T01:13:26;101521.72;;;2.20;46.64
46199;BME280;31928;52.104;10.030;2023-03-02T01:16:03;101516.16;;;2.23;46.46
46199;BME280;31928;52.104;10.030;2023-03-02T01:18:29;101515.97;;;2.15;46.46
46199;BME280;31928;52.104;10.030;2023-03-02T01:21:06;101514.75;;;2.19;46.24
46199;BME280;31928;52.104;10.030;2023-03-02T01:23:34;101511.91;;;2.11;46.33
46199;BME280;31928;52.104;10.030;2023-03-02T01:26:01;101506.91;;;2.08;46.21
46199;BME280;31928;52.104;10.030;2023-03-02T01:28:27;101500.19;;;2.04;46.73
46199;BME280;31928;52.104;10.030;2023-03-02T01:30:54;101495.94;;;2.22;44.20
46199;BME280;31928;52.104;10.030;2023-03-02T01:33:21;101500.44;;;2.01;46.36
46199;BME280;31928;52.104;10.030;2023-03-02T01:35:47;101509.63;;;1.97;46.66
46199;BME280;31928;52.104;10.030;2023-03-02T01:38:14;101511.53;;;1.95;46.98
46199;BME280;31928;52.104;10.030;2023-03-02T01:40:41;101498.44;;;2.14;44.30
46199;BME280;31928;52.104;10.030;2023-03-02T01:43:15;101498.06;;;1.98;46.34
46199;BME280;31928;52.104;10.030;2023-03-02T01:45:54;101491.25;;;1.95;46.60
46199;BME280;31928;52.104;10.030;2023-03-02T01:48:31;101489.56;;;1.94;46.39
46199;BME280;31928;52.104;10.030;2023-03-02T01:51:00;101499.81;;;1.88;47.09
46199;BME280;31928;52.104;10.030;2023-03-02T01:53:30;101487.56;;;1.87;47.15
46199;BME280;31928;52.104;10.030;2023-03-02T01:55:58;101479.91;;;1.84;47.21
46199;BME280;31928;52.104;10.030;2023-03-02T01:58:27;101483.38;;;1.84;47.20
46199;BME280;31928;52.104;10.030;2023-03-02T02:00:57;101479.19;;;1.82;47.54
46199;BME280;31928;52.104;10.030;2023-03-02T02:03:26;101478.09;;;1.84;47.07
46199;BME280;31928;52.104;10.030;2023-03-02T02:06:10;101481.19;;;1.89;46.47
46199;BME280;31928;52.104;10.030;2023-03-02T02:08:38;101476.69;;;1.80;47.08
46199;BME280;31928;52.104;10.030;2023-03-02T02:11:05;101485.56;;;1.79;47.32
46199;BME280;31928;52.104;10.030;2023-03-02T02:13:32;101474.44;;;1.76;46.94
46199;BME280;31928;52.104;10.030;2023-03-02T02:15:58;101472.75;;;1.75;46.90
46199;BME280;31928;52.104;10.030;2023-03-02T02:18:25;101470.25;;;1.74;47.30
46199;BME280;31928;52.104;10.030;2023-03-02T02:20:53;101474.00;;;1.71;47.41
46199;BME280;31928;52.104;10.030;2023-03-02T02:25:57;101475.22;;;1.67;47.26
46199;BME280;31928;52.104;10.030;2023-03-02T02:28:38;101466.88;;;1.72;46.92
46199;BME280;31928;52.104;10.030;2023-03-02T02:31:20;101466.06;;;1.71;46.46
46199;BME280;31928;52.104;10.030;2023-03-02T02:33:54;101478.81;;;1.66;47.12
46199;BME280;31928;52.104;10.030;2023-03-02T02:36:25;101464.91;;;1.64;47.27
46199;BME280;31928;52.104;10.030;2023-03-02T02:38:59;101472.25;;;1.81;44.70
46199;BME280;31928;52.104;10.030;2023-03-02T02:41:32;101470.19;;;1.64;47.38
46199;BME280;31928;52.104;10.030;2023-03-02T02:43:59;101465.41;;;1.58;47.53
46199;BME280;31928;52.104;10.030;2023-03-02T02:46:26;101464.69;;;1.56;47.64
46199;BME280;31928;52.104;10.030;2023-03-02T02:48:53;101469.28;;;1.54;47.49
46199;BME280;31928;52.104;10.030;2023-03-02T02:51:26;101473.34;;;1.58;47.25
46199;BME280;31928;52.104;10.030;2023-03-02T02:54:00;101475.53;;;1.53;47.45
46199;BME280;31928;52.104;10.030;2023-03-02T02:56:32;101476.50;;;1.52;47.10
46199;BME280;31928;52.104;10.030;2023-03-02T02:59:04;101469.78;;;1.48;47.41
46199;BME280;31928;52.104;10.030;2023-03-02T03:01:32;101475.34;;;1.45;47.43
46199;BME280;31928;52.104;10.030;2023-03-02T03:04:02;101478.13;;;1.44;47.41
46199;BME280;31928;52.104;10.030;2023-03-02T03:06:31;101469.47;;;1.42;47.29
46199;BME280;31928;52.104;10.030;2023-03-02T03:09:09;101471.53;;;1.38;47.35
46199;BME280;31928;52.104;10.030;2023-03-02T03:11:44;101467.78;;;1.41;47.46
46199;BME280;31928;52.104;10.030;2023-03-02T03:14:18;101482.22;;;1.37;47.30
46199;BME280;31928;52.104;10.030;2023-03-02T03:16:46;101478.28;;;1.31;47.67
46199;BME280;31928;52.104;10.030;2023-03-02T03:21:48;101476.75;;;1.29;47.82
46199;BME280;31928;52.104;10.030;2023-03-02T03:24:15;101477.97;;;1.25;47.57
46199;BME280;31928;52.104;10.030;2023-03-02T03:26:41;101473.66;;;1.44;44.97
46199;BME280;31928;52.104;10.030;2023-03-02T03:29:09;101472.69;;;1.25;47.31
46199;BME280;31928;52.104;10.030;2023-03-02T03:31:35;101466.81;;;1.21;47.54
46199;BME280;31928;52.104;10.030;2023-03-02T03:34:03;101477.50;;;1.20;47.82
46199;BME280;31928;52.104;10.030;2023-03-02T03:36:31;101476.69;;;1.19;47.88
46199;BME280;31928;52.104;10.030;2023-03-02T03:38:59;101469.00;;;1.17;47.58
46199;BME280;31928;52.104;10.030;2023-03-02T03:41:26;101462.16;;;1.14;47.49
46199;BME280;31928;52.104;10.030;2023-03-02T03:43:53;101455.34;;;1.12;47.55
46199;BME280;31928;52.104;10.030;2023-03-02T03:46:20;101461.47;;;1.12;47.60
46199;BME280;31928;52.104;10.030;2023-03-02T03:48:46;101464.22;;;1.11;47.71
46199;BME280;31928;52.104;10.030;2023-03-02T03:51:13;101459.91;;;1.10;48.00
46199;BME280;31928;52.104;10.030;2023-03-02T03:53:40;101460.88;;;1.09;47.83
46199;BME280;31928;52.104;10.030;2023-03-02T03:56:07;101465.31;;;1.08;47.33
46199;BME280;31928;52.104;10.030;2023-03-02T03:58:34;101461.94;;;1.06;47.49
46199;BME280;31928;52.104;10.030;2023-03-02T04:01:00;101463.94;;;1.24;45.59
46199;BME280;31928;52.104;10.030;2023-03-02T04:03:27;101462.09;;;1.05;47.19
46199;BME280;31928;52.104;10.030;2023-03-02T04:05:54;101466.69;;;1.03;47.63
46199;BME280;31928;52.104;10.030;2023-03-02T04:08:21;101459.94;;;0.99;47.46
46199;BME280;31928;52.104;10.030;2023-03-02T04:10:47;101469.81;;;0.97;47.48
46199;BME280;31928;52.104;10.030;2023-03-02T04:13:14;101464.66;;;0.95;47.64
46199;BME280;31928;52.104;10.030;2023-03-02T04:15:41;101465.75;;;0.93;47.52
46199;BME280;31928;52.104;10.030;2023-03-02T04:18:07;101471.97;;;0.92;47.76
46199;BME280;31928;52.104;10.030;2023-03-02T04:20:34;101464.19;;;0.90;47.86
46199;BME280;31928;52.104;10.030;2023-03-02T04:23:01;101465.16;;;0.89;47.95
46199;BME280;31928;52.104;10.030;2023-03-02T04:25:28;101461.81;;;0.87;48.11
46199;BME280;31928;52.104;10.030;2023-03-02T04:27:55;101468.19;;;0.85;48.18
46199;BME280;31928;52.104;10.030;2023-03-02T04:30:24;101463.72;;;0.85;48.26
46199;BME280;31928;52.104;10.030;2023-03-02T04:32:51;101461.34;;;0.82;48.01
46199;BME280;31928;52.104;10.030;2023-03-02T04:35:18;101461.47;;;0.81;48.32
46199;BME280;31928;52.104;10.030;2023-03-02T04:37:45;101474.00;;;0.99;45.98
46199;BME280;31928;52.104;10.030;2023-03-02T04:40:13;101470.34;;;0.80;47.67
46199;BME280;31928;52.104;10.030;2023-03-02T04:42:40;101471.56;;;0.76;48.13
46199;BME280;31928;52.104;10.030;2023-03-02T04:45:07;101472.50;;;0.75;47.97
46199;BME280;31928;52.104;10.030;2023-03-02T04:47:34;101472.78;;;0.72;47.96
46199;BME280;31928;52.104;10.030;2023-03-02T04:50:01;101473.72;;;0.71;47.87
46199;BME280;31928;52.104;10.030;2023-03-02T04:52:27;101471.31;;;0.68;47.69
46199;BME280;31928;52.104;10.030;2023-03-02T04:54:54;101472.28;;;0.67;47.90
46199;BME280;31928;52.104;10.030;2023-03-02T04:57:20;101472.44;;;0.65;47.95
46199;BME280;31928;52.104;10.030;2023-03-02T04:59:47;101466.28;;;0.65;48.01
46199;BME280;31928;52.104;10.030;2023-03-02T05:02:13;101467.38;;;0.62;48.22
46199;BME280;31928;52.104;10.030;2023-03-02T05:04:40;101466.56;;;0.62;48.39
46199;BME280;31928;52.104;10.030;2023-03-02T05:07:07;101468.47;;;0.60;48.61
46199;BME280;31928;52.104;10.030;2023-03-02T05:09:34;101463.19;;;0.60;48.37
46199;BME280;31928;52.104;10.030;2023-03-02T05:12:01;101470.13;;;0.61;51.88
46199;BME280;31928;52.104;10.030;2023-03-02T05:14:28;101476.09;;;0.74;56.18
46199;BME280;31928;52.104;10.030;2023-03-02T05:16:55;101461.94;;;1.06;60.05
46199;BME280;31928;52.104;10.030;2023-03-02T05:19:22;101462.47;;;1.52;62.65
46199;BME280;31928;52.104;10.030;2023-03-02T05:21:49;101464.84;;;2.05;64.17
46199;BME280;31928;52.104;10.030;2023-03-02T05:24:15;101446.13;;;2.66;59.67
46199;BME280;31928;52.104;10.030;2023-03-02T05:26:42;101451.03;;;3.17;64.75
46199;BME280;31928;52.104;10.030;2023-03-02T05:29:08;101452.78;;;3.73;65.50
46199;BME280;31928;52.104;10.030;2023-03-02T05:31:36;101450.50;;;4.24;65.28
46199;BME280;31928;52.104;10.030;2023-03-02T05:34:05;101449.31;;;4.63;62.62
46199;BME280;31928;52.104;10.030;2023-03-02T05:36:32;101446.34;;;4.92;62.46
46199;BME280;31928;52.104;10.030;2023-03-02T05:38:59;101444.97;;;5.23;63.52
46199;BME280;31928;52.104;10.030;2023-03-02T05:41:26;101447.22;;;5.53;63.81
46199;BME280;31928;52.104;10.030;2023-03-02T05:43:53;101443.56;;;5.97;58.65
46199;BME280;31928;52.104;10.030;2023-03-02T05:46:19;101441.97;;;6.11;61.28
46199;BME280;31928;52.104;10.030;2023-03-02T05:48:49;101451.44;;;6.39;58.70
46199;BME280;31928;52.104;10.030;2023-03-02T05:51:16;101447.22;;;6.62;51.12
46199;BME280;31928;52.104;10.030;2023-03-02T05:53:42;101446.25;;;6.79;48.41
46199;BME280;31928;52.104;10.030;2023-03-02T05:56:09;101443.09;;;6.83;44.86
46199;BME280;31928;52.104;10.030;2023-03-02T05:58:35;101444.25;;;6.81;44.79
46199;BME280;31928;52.104;10.030;2023-03-02T06:01:07;101443.25;;;6.74;43.84
46199;BME280;31928;52.104;10.030;2023-03-02T06:03:34;101451.13;;;6.50;43.13
46199;BME280;31928;52.104;10.030;2023-03-02T06:06:00;101448.06;;;6.29;42.27
46199;BME280;31928;52.104;10.030;2023-03-02T06:08:27;101445.28;;;6.05;42.53
46199;BME280;31928;52.104;10.030;2023-03-02T06:10:55;101447.94;;;5.80;42.68
46199;BME280;31928;52.104;10.030;2023-03-02T06:13:21;101450.88;;;5.52;42.97
46199;BME280;31928;52.104;10.030;2023-03-02T06:15:48;101461.28;;;5.28;43.10
46199;BME280;31928;52.104;10.030;2023-03-02T06:18:15;101460.38;;;5.02;43.22
46199;BME280;31928;52.104;10.030;2023-03-02T06:20:41;101461.78;;;4.79;43.48
46199;BME280;31928;52.104;10.030;2023-03-02T06:23:08;101471.19;;;4.57;43.78
46199;BME280;31928;52.104;10.030;2023-03-02T06:25:37;101468.91;;;4.35;44.13
46199;BME280;31928;52.104;10.030;2023-03-02T06:28:05;101471.63;;;4.16;44.42
46199;BME280;31928;52.104;10.030;2023-03-02T06:30:32;101473.06;;;4.01;45.03
46199;BME280;31928;52.104;10.030;2023-03-02T06:32:58;101474.53;;;3.86;45.10
46199;BME280;31928;52.104;10.030;2023-03-02T06:35:25;101481.25;;;3.71;45.78
46199;BME280;31928;52.104;10.030;2023-03-02T06:37:52;101487.09;;;3.84;44.36
46199;BME280;31928;52.104;10.030;2023-03-02T06:40:19;101488.53;;;3.51;45.83
46199;BME280;31928;52.104;10.030;2023-03-02T06:42:47;101490.50;;;3.39;46.24
46199;BME280;31928;52.104;10.030;2023-03-02T06:45:13;101490.50;;;3.30;46.88
46199;BME280;31928;52.104;10.030;2023-03-02T06:47:40;101495.63;;;3.22;47.48
46199;BME280;31928;52.104;10.030;2023-03-02T06:50:07;101495.50;;;3.14;48.43
46199;BME280;31928;52.104;10.030;2023-03-02T06:52:37;101498.72;;;3.08;48.91
46199;BME280;31928;52.104;10.030;2023-03-02T06:55:04;101498.81;;;2.97;49.27
46199;BME280;31928;52.104;10.030;2023-03-02T06:57:30;101499.41;;;2.91;49.68
46199;BME280;31928;52.104;10.030;2023-03-02T07:00:03;101503.00;;;2.90;49.44
46199;BME280;31928;52.104;10.030;2023-03-02T07:02:36;101507.16;;;2.83;49.21
46199;BME280;31928;52.104;10.030;2023-03-02T07:05:03;101510.22;;;2.79;49.43
46199;BME280;31928;52.104;10.030;2023-03-02T07:07:30;101504.38;;;2.75;49.61
46199;BME280;31928;52.104;10.030;2023-03-02T07:09:57;101502.69;;;2.74;50.33
46199;BME280;31928;52.104;10.030;2023-03-02T07:12:24;101500.31;;;2.71;50.92
46199;BME280;31928;52.104;10.030;2023-03-02T07:14:50;101505.59;;;2.71;51.31
46199;BME280;31928;52.104;10.030;2023-03-02T07:17:27;101495.31;;;2.68;51.17
46199;BME280;31928;52.104;10.030;2023-03-02T07:19:54;101501.28;;;2.70;50.89
46199;BME280;31928;52.104;10.030;2023-03-02T07:22:21;101497.94;;;2.68;51.03
46199;BME280;31928;52.104;10.030;2023-03-02T07:24:47;101493.75;;;2.66;50.85
46199;BME280;31928;52.104;10.030;2023-03-02T07:27:19;101487.34;;;2.68;51.00
46199;BME280;31928;52.104;10.030;2023-03-02T07:29:45;101491.25;;;2.64;50.95
46199;BME280;31928;52.104;10.030;2023-03-02T07:32:12;101492.09;;;2.65;51.13
46199;BME280;31928;52.104;10.030;2023-03-02T07:34:41;101493.19;;;2.62;51.37
46199;BME280;31928;52.104;10.030;2023-03-02T07:37:08;101495.81;;;2.62;51.33
46199;BME280;31928;52.104;10.030;2023-03-02T07:39:37;101485.09;;;2.64;51.31
46199;BME280;31928;52.104;10.030;2023-03-02T07:42:03;101492.59;;;2.59;51.46
46199;BME280;31928;52.104;10.030;2023-03-02T07:44:32;101491.78;;;2.58;51.76
46199;BME280;31928;52.104;10.030;2023-03-02T07:47:01;101488.41;;;2.56;52.02
46199;BME280;31928;52.104;10.030;2023-03-02T07:49:27;101490.09;;;2.57;51.95
46199;BME280;31928;52.104;10.030;2023-03-02T07:51:56;101481.19;;;2.58;52.34
46199;BME280;31928;52.104;10.030;2023-03-02T07:54:23;101477.16;;;2.54;52.71
46199;BME280;31928;52.104;10.030;2023-03-02T07:56:52;101477.84;;;2.56;53.13
46199;BME280;31928;52.104;10.030;2023-03-02T07:59:21;101483.13;;;2.56;52.96
46199;BME280;31928;52.104;10.030;2023-03-02T08:01:48;101486.50;;;2.58;53.37
46199;BME280;31928;52.104;10.030;2023-03-02T08:04:17;101479.00;;;2.63;53.59
46199;BME280;31928;52.104;10.030;2023-03-02T08:06:44;101482.59;;;2.62;53.75
46199;BME280;31928;52.104;10.030;2023-03-02T08:09:13;101483.31;;;2.64;53.95
46199;BME280;31928;52.104;10.030;2023-03-02T08:11:42;101484.84;;;2.67;53.97
46199;BME280;31928;52.104;10.030;2023-03-02T08:14:09;101486.25;;;2.71;53.65
46199;BME280;31928;52.104;10.030;2023-03-02T08:16:38;101492.22;;;2.73;53.86
46199;BME280;31928;52.104;10.030;2023-03-02T08:19:06;101491.13;;;2.75;54.27
46199;BME280;31928;52.104;10.030;2023-03-02T08:21:33;101490.16;;;2.76;54.41
46199;BME280;31928;52.104;10.030;2023-03-02T08:24:00;101488.91;;;2.80;54.47
46199;BME280;31928;52.104;10.030;2023-03-02T08:26:27;101491.28;;;2.83;54.51
46199;BME280;31928;52.104;10.030;2023-03-02T08:28:56;101497.16;;;2.87;55.03
46199;BME280;31928;52.104;10.030;2023-03-02T08:31:25;101491.31;;;2.93;54.84
46199;BME280;31928;52.104;10.030;2023-03-02T08:33:52;101497.16;;;2.96;54.87
46199;BME280;31928;52.104;10.030;2023-03-02T08:36:18;101494.13;;;3.19;51.41
46199;BME280;31928;52.104;10.030;2023-03-02T08:38:46;101500.38;;;3.09;54.51
46199;BME280;31928;52.104;10.030;2023-03-02T08:41:18;101500.53;;;3.17;54.71
46199;BME280;31928;52.104;10.030;2023-03-02T08:43:46;101498.72;;;3.17;54.66
46199;BME280;31928;52.104;10.030;2023-03-02T08:46:16;101494.66;;;3.23;54.85
46199;BME280;31928;52.104;10.030;2023-03-02T08:48:47;101493.31;;;3.28;55.24
46199;BME280;31928;52.104;10.030;2023-03-02T08:51:23;101488.97;;;3.37;54.51
46199;BME280;31928;52.104;10.030;2023-03-02T08:53:52;101489.66;;;3.39;55.33
46199;BME280;31928;52.104;10.030;2023-03-02T08:56:29;101485.31;;;3.47;54.46
46199;BME280;31928;52.104;10.030;2023-03-02T08:59:00;101483.22;;;3.51;55.29
46199;BME280;31928;52.104;10.030;2023-03-02T09:01:29;101489.94;;;3.55;54.95
46199;BME280;31928;52.104;10.030;2023-03-02T09:03:58;101486.00;;;3.58;54.84
46199;BME280;31928;52.104;10.030;2023-03-02T09:06:27;101482.94;;;3.63;55.20
46199;BME280;31928;52.104;10.030;2023-03-02T09:08:55;101480.84;;;3.66;55.32
46199;BME280;31928;52.104;10.030;2023-03-02T09:11:21;101478.72;;;3.89;51.58
46199;BME280;31928;52.104;10.030;2023-03-02T09:13:51;101479.56;;;3.80;54.74
46199;BME280;31928;52.104;10.030;2023-03-02T09:16:18;101478.72;;;3.79;54.90
46199;BME280;31928;52.104;10.030;2023-03-02T09:18:46;101480.41;;;3.80;55.11
46199;BME280;31928;52.104;10.030;2023-03-02T09:21:13;101481.78;;;3.84;55.47
46199;BME280;31928;52.104;10.030;2023-03-02T09:23:40;101473.41;;;3.89;55.19
46199;BME280;31928;52.104;10.030;2023-03-02T09:26:06;101480.09;;;3.93;55.49
46199;BME280;31928;52.104;10.030;2023-03-02T09:28:35;101476.31;;;3.95;55.53
46199;BME280;31928;52.104;10.030;2023-03-02T09:31:04;101474.06;;;4.00;55.19
46199;BME280;31928;52.104;10.030;2023-03-02T09:33:34;101474.75;;;4.02;55.58
46199;BME280;31928;52.104;10.030;2023-03-02T09:36:07;101477.50;;;4.10;55.43
46199;BME280;31928;52.104;10.030;2023-03-02T09:38:34;101479.19;;;4.11;55.54
46199;BME280;31928;52.104;10.030;2023-03-02T09:41:09;101484.13;;;4.33;52.29
46199;BME280;31928;52.104;10.030;2023-03-02T09:54:30;101474.75;;;4.38;54.73
46199;BME280;31928;52.104;10.030;2023-03-02T09:56:58;101477.94;;;4.42;55.08
46199;BME280;31928;52.104;10.030;2023-03-02T09:59:32;101479.72;;;4.51;54.65
46199;BME280;31928;52.104;10.030;2023-03-02T10:04:47;101487.09;;;4.57;54.79
46199;BME280;31928;52.104;10.030;2023-03-02T10:07:30;101480.22;;;4.64;54.32
46199;BME280;31928;52.104;10.030;2023-03-02T10:10:16;101497.66;;;4.66;54.06
46199;BME280;31928;52.104;10.030;2023-03-02T10:15:22;101491.53;;;4.66;54.99
46199;BME280;31928;52.104;10.030;2023-03-02T10:21:16;101486.09;;;4.84;53.55
46199;BME280;31928;52.104;10.030;2023-03-02T10:26:48;101476.16;;;4.86;54.38
46199;BME280;31928;52.104;10.030;2023-03-02T10:31:59;101471.75;;;4.95;54.77
46199;BME280;31928;52.104;10.030;2023-03-02T10:34:28;101481.25;;;4.97;55.36
46199;BME280;31928;52.104;10.030;2023-03-02T10:36:56;101470.03;;;5.03;55.06
46199;BME280;31928;52.104;10.030;2023-03-02T10:39:23;101466.94;;;5.08;54.96
46199;BME280;31928;52.104;10.030;2023-03-02T10:41:52;101463.34;;;5.34;51.82
46199;BME280;31928;52.104;10.030;2023-03-02T10:44:24;101468.28;;;5.29;54.50
46199;BME280;31928;52.104;10.030;2023-03-02T10:46:52;101466.97;;;5.33;54.65
46199;BME280;31928;52.104;10.030;2023-03-02T10:49:22;101469.88;;;5.57;51.90
46199;BME280;31928;52.104;10.030;2023-03-02T10:52:12;101464.22;;;5.60;53.22
46199;BME280;31928;52.104;10.030;2023-03-02T10:54:39;101471.22;;;5.61;54.42
46199;BME280;31928;52.104;10.030;2023-03-02T10:57:28;101470.38;;;5.78;53.32
46199;BME280;31928;52.104;10.030;2023-03-02T11:00:00;101460.09;;;5.83;53.34
46199;BME280;31928;52.104;10.030;2023-03-02T11:02:35;101459.63;;;5.87;53.81
46199;BME280;31928;52.104;10.030;2023-03-02T11:07:57;101448.00;;;6.13;53.38
46199;BME280;31928;52.104;10.030;2023-03-02T11:10:29;101441.72;;;6.22;53.27
46199;BME280;31928;52.104;10.030;2023-03-02T11:12:58;101445.75;;;6.34;53.64
46199;BME280;31928;52.104;10.030;2023-03-02T11:15:28;101436.34;;;6.48;53.15
46199;BME280;31928;52.104;10.030;2023-03-02T11:18:06;101428.22;;;6.65;52.72
46199;BME280;31928;52.104;10.030;2023-03-02T11:20:45;101422.78;;;6.82;52.74
46199;BME280;31928;52.104;10.030;2023-03-02T11:26:00;101431.84;;;7.21;52.53
46199;BME280;31928;52.104;10.030;2023-03-02T11:28:37;101426.66;;;7.43;52.97
46199;BME280;31928;52.104;10.030;2023-03-02T11:31:14;101421.97;;;7.69;51.80
46199;BME280;31928;52.104;10.030;2023-03-02T11:33:58;101423.94;;;7.99;51.27
46199;BME280;31928;52.104;10.030;2023-03-02T11:36:49;101424.38;;;8.26;50.09
46199;BME280;31928;52.104;10.030;2023-03-02T11:39:25;101420.97;;;8.48;50.15
46199;BME280;31928;52.104;10.030;2023-03-02T11:41:53;101416.00;;;8.67;50.43
46199;BME280;31928;52.104;10.030;2023-03-02T11:44:20;101410.00;;;8.96;49.45
46199;BME280;31928;52.104;10.030;2023-03-02T11:46:50;101405.06;;;9.07;49.97
46199;BME280;31928;52.104;10.030;2023-03-02T11:49:41;101406.53;;;9.32;49.21
46199;BME280;31928;52.104;10.030;2023-03-02T11:52:17;101401.06;;;9.48;48.35
46199;BME280;31928;52.104;10.030;2023-03-02T11:55:22;101405.34;;;9.71;48.07
46199;BME280;31928;52.104;10.030;2023-03-02T11:57:57;101408.44;;;9.82;47.08
46199;BME280;31928;52.104;10.030;2023-03-02T12:00:37;101396.97;;;9.88;46.72
46199;BME280;31928;52.104;10.030;2023-03-02T12:05:59;101400.25;;;9.98;46.68
46199;BME280;31928;52.104;10.030;2023-03-02T12:13:57;101401.06;;;10.27;46.49
46199;BME280;31928;52.104;10.030;2023-03-02T12:16:40;101397.72;;;10.40;45.79
46199;BME280;31928;52.104;10.030;2023-03-02T12:21:56;101387.66;;;10.42;45.56
46199;BME280;31928;52.104;10.030;2023-03-02T12:24:42;101376.53;;;10.45;45.79
46199;BME280;31928;52.104;10.030;2023-03-02T12:30:24;101368.78;;;10.50;46.18
46199;BME280;31928;52.104;10.030;2023-03-02T12:33:18;101361.75;;;10.63;45.98
46199;BME280;31928;52.104;10.030;2023-03-02T12:35:47;101355.84;;;10.74;45.96
46199;BME280;31928;52.104;10.030;2023-03-02T12:38:26;101354.78;;;10.89;45.82
46199;BME280;31928;52.104;10.030;2023-03-02T12:46:45;101346.19;;;11.42;44.71
46199;BME280;31928;52.104;10.030;2023-03-02T12:49:33;101343.69;;;11.61;45.14
46199;BME280;31928;52.104;10.030;2023-03-02T12:52:15;101342.91;;;11.67;44.42
46199;BME280;31928;52.104;10.030;2023-03-02T12:54:43;101341.53;;;11.78;44.08
46199;BME280;31928;52.104;10.030;2023-03-02T12:57:15;101339.94;;;11.90;43.90
46199;BME280;31928;52.104;10.030;2023-03-02T12:59:54;101341.25;;;12.00;43.67
46199;BME280;31928;52.104;10.030;2023-03-02T13:02:44;101337.97;;;12.04;43.11
46199;BME280;31928;52.104;10.030;2023-03-02T13:05:17;101329.34;;;12.15;43.52
46199;BME280;31928;52.104;10.030;2023-03-02T13:07:55;101332.91;;;12.22;43.38
46199;BME280;31928;52.104;10.030;2023-03-02T13:10:30;101336.19;;;12.24;42.94
46199;BME280;31928;52.104;10.030;2023-03-02T13:12:59;101342.00;;;12.21;42.59
46199;BME280;31928;52.104;10.030;2023-03-02T13:15:26;101330.19;;;12.16;42.48
46199;BME280;31928;52.104;10.030;2023-03-02T13:17:54;101321.16;;;12.36;43.30
46199;BME280;31928;52.104;10.030;2023-03-02T13:20:24;101324.78;;;12.09;42.53
46199;BME280;31928;52.104;10.030;2023-03-02T13:22:51;101333.78;;;11.96;43.24
46199;BME280;31928;52.104;10.030;2023-03-02T13:25:24;101329.84;;;11.92;43.04
46199;BME280;31928;52.104;10.030;2023-03-02T13:27:53;101322.97;;;11.83;42.86
46199;BME280;31928;52.104;10.030;2023-03-02T13:30:27;101322.94;;;11.76;43.24
46199;BME280;31928;52.104;10.030;2023-03-02T13:33:04;101322.44;;;11.66;43.40
46199;BME280;31928;52.104;10.030;2023-03-02T13:35:33;101322.34;;;11.53;43.50
46199;BME280;31928;52.104;10.030;2023-03-02T13:38:10;101318.53;;;11.41;43.70
46199;BME280;31928;52.104;10.030;2023-03-02T13:40:42;101314.53;;;11.31;43.97
46199;BME280;31928;52.104;10.030;2023-03-02T13:43:39;101312.19;;;11.28;43.75
46199;BME280;31928;52.104;10.030;2023-03-02T13:48:55;101306.16;;;10.99;44.12
46199;BME280;31928;52.104;10.030;2023-03-02T13:51:41;101308.50;;;10.81;44.53
46199;BME280;31928;52.104;10.030;2023-03-02T13:54:25;101306.38;;;10.77;44.49
46199;BME280;31928;52.104;10.030;2023-03-02T13:56:54;101301.19;;;10.54;45.14
46199;BME280;31928;52.104;10.030;2023-03-02T13:59:22;101298.19;;;10.43;45.57
46199;BME280;31928;52.104;10.030;2023-03-02T14:01:49;101294.97;;;10.33;45.75